Aérodrome :
LOGIN :

S'inscrire | Disclaimer

   EN    FR    IT 

 










Légende :    VFR   VFR Marginal   IFR   IFR Intensif   IFR Très Intensif
Visi : 
Plafond : 
>= 8 km
>= 3000ft
5 à 8 km
1000 à 3000 ft
1500m à 5 km
500 à 1000 ft
800 à 1500m
200 à 500 ft
< 800m
< 200 ft
Symboles :   Orages  Brouillard  Fortes neiges  Fortes précipitations  Vent > 20 kt
SIGMETs :   Divers  Orages  Givrage  Turbulence  Onde Orograph.  Cendres Volcan.







- Altitude de l'aérodrome : 779 ft
- Code IATA : CMF
- Voir les cartes d'approche


LFLB - Chambery / Aix-Les-Bains

DERNIER METAR :
  • 171430Z AUTO 35009KT 320V020 9999 FEW072 30/14 Q1016 NOSIG

METARs EXPIRÉS :
  • 171400Z AUTO 35009KT 290V010 9999 FEW066 30/14 Q1016 NOSIG
  • 171330Z AUTO 03003KT 310V110 9999 FEW064 30/13 Q1016 NOSIG
  • 171300Z AUTO 05005KT 360V100 9999 FEW066 29/14 Q1016 NOSIG
  • 171230Z AUTO 02006KT 9999 ///CB 29/15 Q1016 BECMG NSC
  • 171200Z AUTO 03008KT CAVOK 29/16 Q1016 NOSIG

TAF TAF LFLB
Valide du 17 à 12h jusqu'au 18 à 12h UTC


171100Z 1712/1812 36008KT CAVOK
BECMG 1721/1724 VRB02KT
Pas de NOTAMs connus pour ce terrain.



MET'MAP, la Météo Aéronautique d'un coup d'oeil ! - Copyright ORBIFLY Décembre 2007 - Disclaimer

ORBIFLY MET'MAP TEAM :

Programmation & Développement : Alexandra Zaïnal
Conception & Développement : Baudouin d'Aumeries
Co-Programmation & Développement : Marc-Olivier Méhu
Soutien technique & logistique : Manuel Goepfert

Contact : metmap@orbifly.com




SOURCES & CREDITS :

   NOAA